Time;durP1;ratioP1;P1;durP2;ratioP2;P2;SDS_P1;SDS_P2;PMS_P1;PMS_P2;Temp;Humidity;BMP_temperature;BMP_pressure;BME280_temperature;BME280_humidity;BME280_pressure;Samples;Min_cycle;Max_cycle;Signal;HPM_P1;HPM_P2
2023/11/05 00:01:56;;;;;;;5.80;3.30;;;;;;;22.51;55.73;99883.92;107084;1257;25357;-51
2023/11/05 00:04:23;;;;;;;6.80;3.20;;;;;;;22.47;55.63;99886.90;107094;1255;25252;-52
2023/11/05 00:06:50;;;;;;;7.20;3.40;;;;;;;22.44;55.49;99896.20;107289;1261;25323;-50
2023/11/05 00:09:18;;;;;;;5.20;3.40;;;;;;;22.42;55.36;99903.41;107074;1256;25334;-53
2023/11/05 00:11:45;;;;;;;6.20;3.50;;;;;;;22.40;55.39;99917.55;107021;1266;25452;-50
2023/11/05 00:14:12;;;;;;;4.60;3.00;;;;;;;22.38;55.15;99923.54;107050;1253;25360;-52
2023/11/05 00:16:39;;;;;;;3.60;3.20;;;;;;;22.36;55.13;99929.38;107108;1266;22612;-50
2023/11/05 00:19:07;;;;;;;6.20;3.50;;;;;;;22.34;54.99;99937.70;106827;1257;25366;-52
2023/11/05 00:21:35;;;;;;;5.50;3.50;;;;;;;22.32;54.92;99944.93;106945;1270;22658;-52
2023/11/05 00:24:02;;;;;;;4.90;3.70;;;;;;;22.30;54.94;99949.15;107135;1251;25322;-52
2023/11/05 00:26:29;;;;;;;5.00;3.80;;;;;;;22.28;54.83;99946.32;107180;1260;22530;-52
2023/11/05 00:28:57;;;;;;;6.20;3.80;;;;;;;22.26;54.78;99933.55;107242;1251;25331;-51
2023/11/05 00:31:24;;;;;;;6.60;3.30;;;;;;;22.23;54.84;99934.52;107061;1256;25405;-53
2023/11/05 00:33:51;;;;;;;4.70;3.60;;;;;;;22.22;54.70;99933.36;107130;1263;22612;-51
2023/11/05 00:36:19;;;;;;;4.50;3.40;;;;;;;22.21;54.74;99933.46;107109;1256;25401;-50
2023/11/05 00:38:46;;;;;;;6.70;3.50;;;;;;;22.18;54.64;99933.92;107045;1263;25360;-50
2023/11/05 00:41:13;;;;;;;4.80;3.10;;;;;;;22.15;54.53;99927.26;107166;1263;25331;-50
2023/11/05 00:43:39;;;;;;;6.90;3.60;;;;;;;22.12;54.79;99929.09;107007;1256;25376;-50
2023/11/05 00:46:07;;;;;;;3.80;3.40;;;;;;;22.10;54.59;99942.01;107042;1254;25334;-50
2023/11/05 00:48:34;;;;;;;4.70;3.10;;;;;;;22.08;54.69;99944.30;107111;1254;25481;-52
2023/11/05 00:51:01;;;;;;;5.40;3.00;;;;;;;22.06;54.68;99945.67;107125;1256;22604;-51
2023/11/05 00:53:28;;;;;;;3.70;3.40;;;;;;;22.02;54.59;99942.10;107080;1254;22687;-51
2023/11/05 00:55:55;;;;;;;4.80;3.50;;;;;;;21.96;54.71;99935.35;106854;1270;25331;-50
2023/11/05 00:58:22;;;;;;;8.60;4.50;;;;;;;21.97;54.54;99929.98;106895;1266;25338;-50
2023/11/05 01:00:49;;;;;;;3.80;3.40;;;;;;;21.95;54.38;99932.27;107071;1260;25956;-51
2023/11/05 01:03:16;;;;;;;5.90;3.90;;;;;;;21.93;54.23;99934.58;107126;1256;25356;-50
2023/11/05 01:05:44;;;;;;;4.70;3.00;;;;;;;21.90;54.36;99928.10;107146;1255;25433;-50
2023/11/05 01:08:12;;;;;;;3.40;3.10;;;;;;;21.88;54.44;99925.65;107147;1260;25350;-50
2023/11/05 01:10:39;;;;;;;4.60;3.40;;;;;;;21.86;54.35;99921.52;107127;1254;22533;-50
2023/11/05 01:13:07;;;;;;;3.80;3.40;;;;;;;21.83;54.44;99923.35;107056;1256;25362;-50
2023/11/05 01:15:34;;;;;;;6.40;3.20;;;;;;;21.82;54.34;99917.83;107138;1263;25420;-50
2023/11/05 01:18:01;;;;;;;5.40;3.60;;;;;;;21.81;54.32;99922.46;107087;1257;25380;-50
2023/11/05 01:20:28;;;;;;;5.40;3.30;;;;;;;21.71;54.45;99913.54;107063;1260;25414;-50
2023/11/05 01:22:56;;;;;;;3.80;3.40;;;;;;;21.74;54.39;99911.59;107063;1268;25360;-52
2023/11/05 01:25:23;;;;;;;5.30;3.90;;;;;;;21.75;54.31;99918.00;107122;1263;25378;-50
2023/11/05 01:27:50;;;;;;;3.50;3.00;;;;;;;21.73;54.25;99915.38;107095;1254;25328;-53
2023/11/05 01:30:17;;;;;;;3.90;3.60;;;;;;;21.69;54.27;99919.41;107140;1251;22523;-52
2023/11/05 01:32:46;;;;;;;4.70;3.60;;;;;;;21.65;54.40;99919.16;107042;1270;25359;-52
2023/11/05 01:35:13;;;;;;;4.40;3.70;;;;;;;21.64;54.49;99932.35;107121;1256;25439;-52
2023/11/05 01:37:40;;;;;;;4.30;3.10;;;;;;;21.62;54.42;99937.41;107158;1254;25360;-52
2023/11/05 01:40:07;;;;;;;3.90;3.50;;;;;;;21.60;54.31;99946.23;107009;1257;25353;-51
2023/11/05 01:42:34;;;;;;;4.40;4.00;;;;;;;21.60;54.34;99948.75;106969;1269;25373;-52
2023/11/05 01:45:01;;;;;;;4.60;3.50;;;;;;;21.59;54.46;99957.26;107041;1254;25851;-51
2023/11/05 01:47:29;;;;;;;4.90;4.00;;;;;;;21.58;54.49;99961.38;106953;1256;25471;-50
2023/11/05 01:49:56;;;;;;;4.00;3.70;;;;;;;21.56;54.38;99974.13;107144;1261;22534;-51
2023/11/05 01:52:22;;;;;;;4.30;3.80;;;;;;;21.53;54.44;99975.44;107040;1257;25475;-51
2023/11/05 01:54:49;;;;;;;4.20;3.70;;;;;;;21.50;54.45;99973.13;107132;1254;25356;-51
2023/11/05 01:57:17;;;;;;;4.30;3.90;;;;;;;21.47;54.47;99980.27;107049;1267;23881;-52
2023/11/05 01:59:44;;;;;;;4.20;3.80;;;;;;;21.44;54.49;99984.41;106866;1265;24094;-51
2023/11/05 02:02:10;;;;;;;7.60;3.90;;;;;;;21.43;54.51;99988.25;106855;1256;25239;-52
2023/11/05 02:04:38;;;;;;;5.20;4.10;;;;;;;21.41;54.64;99993.51;106755;1270;25404;-51
2023/11/05 02:07:05;;;;;;;6.10;4.00;;;;;;;21.37;54.69;100005.23;106947;1257;25353;-52
2023/11/05 02:09:32;;;;;;;6.30;4.20;;;;;;;21.35;54.82;100009.69;106956;1257;25541;-52
2023/11/05 02:11:59;;;;;;;5.50;4.00;;;;;;;21.33;54.71;100021.31;106606;1263;25388;-52
2023/11/05 02:14:26;;;;;;;4.60;4.20;;;;;;;21.31;54.74;100021.07;106923;1257;23364;-50
2023/11/05 02:16:53;;;;;;;4.40;4.00;;;;;;;21.30;54.66;100034.81;106929;1266;25484;-52
2023/11/05 02:19:20;;;;;;;4.10;3.70;;;;;;;21.27;54.58;100041.03;106961;1257;25349;-49
2023/11/05 02:21:50;;;;;;;3.70;3.40;;;;;;;21.24;54.52;100044.96;106747;1260;25331;-51
2023/11/05 02:24:16;;;;;;;3.50;3.20;;;;;;;21.20;54.58;100046.80;106907;1269;22533;-51
2023/11/05 02:26:56;;;;;;;5.30;4.20;;;;;;;21.17;54.57;100058.49;106768;1256;25514;-53
2023/11/05 02:29:23;;;;;;;5.00;3.40;;;;;;;21.16;54.51;100071.34;106783;1256;22638;-52
2023/11/05 02:31:51;;;;;;;3.10;2.80;;;;;;;21.14;54.52;100084.36;106871;1260;25478;-53
2023/11/05 02:34:18;;;;;;;2.90;2.60;;;;;;;21.12;54.60;100098.45;106508;1266;25335;-50
2023/11/05 02:36:45;;;;;;;2.90;2.60;;;;;;;21.11;54.57;100110.52;106538;1273;25409;-52
2023/11/05 02:39:13;;;;;;;2.70;2.50;;;;;;;21.10;54.52;100125.75;106775;1259;25372;-52
2023/11/05 02:41:40;;;;;;;2.70;2.00;;;;;;;21.07;54.46;100128.77;106759;1257;22540;-52
2023/11/05 02:44:07;;;;;;;1.70;1.60;;;;;;;21.05;54.21;100140.70;106797;1259;22651;-52
2023/11/05 02:46:34;;;;;;;2.20;1.80;;;;;;;21.03;54.31;100144.59;106698;1259;25484;-52
2023/11/05 02:49:01;;;;;;;3.40;1.60;;;;;;;21.02;54.19;100144.45;106821;1263;25373;-51
2023/11/05 02:51:28;;;;;;;2.10;1.60;;;;;;;21.02;54.07;100149.22;106838;1269;25363;-51
2023/11/05 02:53:55;;;;;;;3.00;1.50;;;;;;;21.01;53.94;100150.31;106675;1271;25551;-51
2023/11/05 02:56:22;;;;;;;1.10;1.00;;;;;;;21.01;53.88;100155.08;106781;1259;25369;-51
2023/11/05 02:58:50;;;;;;;1.30;1.20;;;;;;;21.01;53.71;100162.49;106764;1266;25363;-51
2023/11/05 03:01:22;;;;;;;1.20;1.00;;;;;;;21.00;53.76;100173.11;106569;1262;25457;-51
2023/11/05 03:03:51;;;;;;;0.90;0.80;;;;;;;21.00;53.55;100180.52;106577;1270;22529;-51
2023/11/05 03:06:18;;;;;;;1.40;0.90;;;;;;;20.99;53.62;100190.50;107067;1267;25376;-51
2023/11/05 03:08:45;;;;;;;1.10;0.90;;;;;;;20.99;53.56;100198.64;107068;1257;25331;-53
2023/11/05 03:11:12;;;;;;;0.70;0.70;;;;;;;20.97;53.58;100202.85;107097;1254;24386;-51
2023/11/05 03:13:39;;;;;;;1.30;0.90;;;;;;;20.96;53.56;100209.05;107112;1263;25341;-52
2023/11/05 03:16:11;;;;;;;1.00;0.90;;;;;;;20.94;53.67;100213.61;107160;1254;24204;-52
2023/11/05 03:18:42;;;;;;;1.40;0.80;;;;;;;20.94;53.44;100218.05;107179;1263;25437;-52
2023/11/05 03:21:13;;;;;;;0.70;0.70;;;;;;;20.92;53.40;100219.39;106970;1257;25360;-51
2023/11/05 03:23:41;;;;;;;1.50;1.00;;;;;;;20.91;53.20;100228.33;107131;1256;24335;-51
2023/11/05 03:26:08;;;;;;;1.00;0.70;;;;;;;20.89;53.09;100226.67;107086;1256;25328;-52
2023/11/05 03:28:35;;;;;;;1.10;0.90;;;;;;;20.87;53.07;100228.09;107058;1254;22523;-51
2023/11/05 03:31:02;;;;;;;1.20;0.90;;;;;;;20.85;53.13;100231.07;106826;1257;25353;-51
2023/11/05 03:33:29;;;;;;;2.90;0.90;;;;;;;20.82;53.00;100234.40;107049;1254;25404;-51
2023/11/05 03:35:56;;;;;;;1.30;1.20;;;;;;;20.80;52.92;100241.82;107102;1255;22542;-51
2023/11/05 03:38:23;;;;;;;0.90;0.80;;;;;;;20.78;52.91;100242.32;107119;1255;24237;-51
2023/11/05 03:40:50;;;;;;;2.00;1.20;;;;;;;20.76;52.95;100243.88;106901;1269;25471;-50
2023/11/05 03:43:17;;;;;;;1.40;0.90;;;;;;;20.72;53.02;100246.09;107111;1254;25321;-50
2023/11/05 03:45:44;;;;;;;3.90;1.90;;;;;;;20.70;52.91;100249.78;107122;1257;25407;-51
2023/11/05 03:48:12;;;;;;;1.30;1.20;;;;;;;20.67;53.02;100250.71;105399;1274;1003010;-51
2023/11/05 03:50:39;;;;;;;1.10;1.00;;;;;;;20.64;52.96;100252.52;106874;1257;25350;-51
2023/11/05 03:53:06;;;;;;;1.90;1.10;;;;;;;20.61;52.92;100254.83;106989;1267;22526;-52
2023/11/05 03:55:33;;;;;;;1.40;1.30;;;;;;;20.57;52.93;100247.70;106815;1258;25341;-52
2023/11/05 03:58:00;;;;;;;1.10;1.00;;;;;;;20.54;53.03;100248.61;107086;1257;25405;-51
2023/11/05 04:00:28;;;;;;;2.30;1.10;;;;;;;20.52;53.09;100251.58;107089;1263;24218;-51
2023/11/05 04:02:56;;;;;;;1.60;1.20;;;;;;;20.50;53.11;100254.59;107086;1263;25360;-51
2023/11/05 04:05:23;;;;;;;2.70;1.60;;;;;;;20.47;53.06;100264.46;106675;1262;25334;-51
2023/11/05 04:07:50;;;;;;;1.10;1.00;;;;;;;20.44;53.18;100275.55;106919;1256;25442;-51
2023/11/05 04:10:17;;;;;;;1.30;1.20;;;;;;;20.42;53.09;100279.46;106655;1269;25350;-51
2023/11/05 04:12:45;;;;;;;1.30;1.20;;;;;;;20.36;53.20;100284.96;106913;1261;25402;-50
2023/11/05 04:15:12;;;;;;;1.50;1.20;;;;;;;20.34;53.09;100285.27;106976;1264;22525;-51
2023/11/05 04:17:39;;;;;;;2.60;1.30;;;;;;;20.32;53.06;100294.57;106970;1256;25449;-51
2023/11/05 04:20:06;;;;;;;1.80;1.50;;;;;;;20.30;53.01;100294.38;106990;1254;25347;-51
2023/11/05 04:22:34;;;;;;;1.50;1.40;;;;;;;20.26;53.02;100292.02;106898;1257;25527;-50
2023/11/05 04:25:01;;;;;;;1.60;1.40;;;;;;;20.22;53.05;100291.96;106747;1259;25386;-52
2023/11/05 04:27:29;;;;;;;1.60;1.50;;;;;;;20.17;53.05;100290.99;106926;1267;22532;-52
2023/11/05 04:29:56;;;;;;;2.00;1.60;;;;;;;20.14;53.14;100299.69;106856;1260;24277;-51
2023/11/05 04:32:23;;;;;;;1.90;1.50;;;;;;;20.10;53.15;100306.27;106932;1257;25352;-52
2023/11/05 04:34:50;;;;;;;2.60;1.60;;;;;;;20.06;53.18;100314.14;106839;1266;23890;-52
2023/11/05 04:37:18;;;;;;;1.40;1.30;;;;;;;20.03;53.16;100321.56;106882;1273;25319;-52
2023/11/05 04:39:45;;;;;;;2.00;1.50;;;;;;;20.02;53.23;100319.52;107058;1263;22571;-51
2023/11/05 04:42:12;;;;;;;2.40;1.70;;;;;;;20.00;53.17;100325.64;107102;1257;25388;-52
2023/11/05 04:44:39;;;;;;;2.40;1.60;;;;;;;19.98;53.14;100327.04;106990;1263;22530;-52
2023/11/05 04:47:06;;;;;;;2.20;1.60;;;;;;;19.97;53.20;100335.75;107129;1254;25359;-51
2023/11/05 04:49:33;;;;;;;1.90;1.60;;;;;;;19.95;53.22;100335.53;107052;1257;25353;-51
2023/11/05 04:52:00;;;;;;;2.00;1.70;;;;;;;19.91;53.27;100340.66;107110;1257;25328;-51
2023/11/05 04:54:27;;;;;;;1.60;1.50;;;;;;;19.89;53.23;100345.58;107044;1263;25328;-52
2023/11/05 04:56:54;;;;;;;1.90;1.50;;;;;;;19.86;53.37;100347.89;107060;1257;25408;-52
2023/11/05 04:59:21;;;;;;;2.20;2.10;;;;;;;19.84;53.43;100344.89;107015;1263;24221;-52
2023/11/05 05:01:48;;;;;;;3.10;2.20;;;;;;;19.84;53.46;100347.88;107074;1268;25312;-50
2023/11/05 05:04:15;;;;;;;4.00;2.90;;;;;;;19.82;53.59;100346.23;107025;1256;25356;-51
2023/11/05 05:06:42;;;;;;;4.20;3.10;;;;;;;19.80;53.82;100347.58;106807;1260;25407;-51
2023/11/05 05:09:10;;;;;;;5.20;3.30;;;;;;;19.79;53.82;100353.85;107097;1257;25350;-51
2023/11/05 05:11:37;;;;;;;2.90;2.70;;;;;;;19.78;54.01;100364.33;107082;1257;25312;-51
2023/11/05 05:14:04;;;;;;;3.70;3.40;;;;;;;19.76;54.17;100363.02;106831;1260;25519;-51
2023/11/05 05:16:31;;;;;;;3.70;3.40;;;;;;;19.75;54.29;100359.19;107115;1266;25359;-51
2023/11/05 05:18:58;;;;;;;5.20;3.90;;;;;;;19.75;54.37;100366.23;106795;1266;25360;-51
2023/11/05 05:21:26;;;;;;;4.90;4.40;;;;;;;19.76;54.48;100365.69;107035;1254;26091;-51
2023/11/05 05:23:53;;;;;;;4.60;4.20;;;;;;;19.75;54.56;100370.46;107003;1269;25332;-51
2023/11/05 05:26:20;;;;;;;5.10;4.70;;;;;;;19.74;54.64;100377.73;106934;1254;22524;-51
2023/11/05 05:28:47;;;;;;;4.80;4.40;;;;;;;19.75;54.76;100378.55;106995;1253;22530;-51
2023/11/05 05:31:15;;;;;;;5.90;4.70;;;;;;;19.76;55.00;100383.95;106910;1254;25318;-51
2023/11/05 05:33:42;;;;;;;7.20;4.80;;;;;;;19.80;55.06;100384.57;106845;1253;24205;-52
2023/11/05 05:36:10;;;;;;;5.00;4.60;;;;;;;19.85;55.01;100383.03;107036;1260;24186;-52
2023/11/05 05:38:37;;;;;;;5.10;4.60;;;;;;;19.88;54.94;100378.75;106774;1267;25516;-51
2023/11/05 05:41:04;;;;;;;4.70;4.20;;;;;;;19.92;54.86;100379.20;107075;1263;22557;-52
2023/11/05 05:43:31;;;;;;;5.70;4.70;;;;;;;19.94;54.85;100380.80;107048;1251;25683;-51
2023/11/05 05:45:59;;;;;;;5.50;5.00;;;;;;;19.96;54.79;100376.82;106775;1259;25503;-51
2023/11/05 05:48:25;;;;;;;5.30;4.80;;;;;;;19.98;54.92;100377.55;107013;1254;25359;-52
2023/11/05 05:50:53;;;;;;;5.70;5.10;;;;;;;20.02;55.11;100385.73;106871;1257;24354;-51
2023/11/05 05:53:20;;;;;;;5.10;4.70;;;;;;;20.07;55.30;100393.11;106965;1251;25550;-51
2023/11/05 05:55:47;;;;;;;5.20;4.70;;;;;;;20.16;55.21;100395.88;106985;1256;22520;-51
2023/11/05 05:58:16;;;;;;;5.10;4.60;;;;;;;20.24;54.59;100394.86;107189;1257;25322;-50
2023/11/05 06:00:46;;;;;;;5.00;4.50;;;;;;;20.30;54.28;100396.74;107099;1263;25526;-52
2023/11/05 06:03:13;;;;;;;5.20;4.70;;;;;;;20.35;54.04;100397.64;106968;1260;25489;-52
2023/11/05 06:05:40;;;;;;;5.60;5.10;;;;;;;20.37;53.81;100395.14;107150;1255;25325;-51
2023/11/05 06:08:07;;;;;;;5.20;4.70;;;;;;;20.40;53.54;100393.61;106837;1270;25411;-52
2023/11/05 06:10:35;;;;;;;6.50;4.40;;;;;;;20.41;53.38;100393.67;107160;1256;25309;-51
2023/11/05 06:13:02;;;;;;;5.20;4.70;;;;;;;20.43;53.35;100397.61;107089;1258;24363;-51
2023/11/05 06:15:29;;;;;;;5.60;5.10;;;;;;;20.45;53.22;100403.13;107138;1257;25350;-51
2023/11/05 06:17:57;;;;;;;5.20;4.80;;;;;;;20.48;53.12;100407.99;106931;1269;25399;-51
2023/11/05 06:20:24;;;;;;;5.90;5.30;;;;;;;20.52;53.04;100416.36;107142;1257;25340;-51
2023/11/05 06:22:55;;;;;;;6.00;5.10;;;;;;;20.56;52.92;100420.46;107050;1256;25424;-51
2023/11/05 06:25:22;;;;;;;5.70;5.10;;;;;;;20.61;52.82;100421.75;106884;1266;24182;-51
2023/11/05 06:27:49;;;;;;;5.60;5.10;;;;;;;20.66;52.42;100425.59;107133;1254;25517;-51
2023/11/05 06:30:16;;;;;;;6.50;5.30;;;;;;;20.69;52.23;100427.15;107105;1254;25787;-52
2023/11/05 06:32:43;;;;;;;6.50;5.10;;;;;;;20.72;52.11;100433.28;105617;1263;1002936;-51
2023/11/05 06:35:11;;;;;;;6.20;5.60;;;;;;;20.74;52.22;100432.45;106808;1259;25392;-51
2023/11/05 06:37:38;;;;;;;6.70;6.20;;;;;;;20.77;52.24;100439.64;107127;1261;25360;-50
2023/11/05 06:40:06;;;;;;;7.40;6.70;;;;;;;20.78;52.10;100434.59;107136;1263;25360;-51
2023/11/05 06:42:33;;;;;;;7.40;6.60;;;;;;;20.81;51.84;100439.88;106866;1259;25359;-51
2023/11/05 06:45:00;;;;;;;7.20;6.60;;;;;;;20.83;51.62;100444.31;107138;1267;25350;-51
2023/11/05 06:47:27;;;;;;;7.30;6.70;;;;;;;20.85;51.71;100449.67;107120;1256;25350;-50
2023/11/05 06:49:54;;;;;;;6.80;6.20;;;;;;;20.87;51.70;100455.86;107143;1256;25417;-51
2023/11/05 06:52:21;;;;;;;7.10;6.40;;;;;;;20.90;51.68;100458.81;107124;1254;25331;-51
2023/11/05 06:54:48;;;;;;;6.80;6.10;;;;;;;20.93;51.46;100457.23;107189;1263;25350;-51
2023/11/05 06:57:15;;;;;;;7.40;6.80;;;;;;;20.95;51.43;100456.01;107075;1256;25478;-52
2023/11/05 06:59:42;;;;;;;6.90;6.30;;;;;;;20.98;51.32;100457.53;106937;1266;25401;-50
2023/11/05 07:02:10;;;;;;;6.90;6.30;;;;;;;20.93;51.43;100456.52;106878;1257;25360;-50
2023/11/05 07:04:37;;;;;;;7.00;6.40;;;;;;;20.93;51.48;100456.88;106734;1254;25447;-50
2023/11/05 07:07:05;;;;;;;6.80;6.20;;;;;;;20.95;51.35;100458.84;106961;1253;24310;-51
2023/11/05 07:09:32;;;;;;;6.90;6.20;;;;;;;20.97;51.35;100454.98;107071;1254;24356;-51
2023/11/05 07:11:59;;;;;;;6.90;6.30;;;;;;;21.00;51.33;100456.02;106882;1260;25350;-51
2023/11/05 07:14:26;;;;;;;7.50;6.80;;;;;;;21.02;51.23;100452.33;106947;1260;25384;-51
2023/11/05 07:16:53;;;;;;;7.30;6.70;;;;;;;21.05;51.24;100455.30;106929;1270;25331;-50
2023/11/05 07:19:20;;;;;;;6.40;5.70;;;;;;;21.10;51.42;100455.20;107041;1257;25408;-51
2023/11/05 07:21:47;;;;;;;8.10;6.60;;;;;;;21.13;51.42;100460.61;106910;1260;25360;-50
2023/11/05 07:24:14;;;;;;;6.50;5.90;;;;;;;21.17;51.31;100462.10;106823;1257;25309;-50
2023/11/05 07:26:45;;;;;;;6.80;6.20;;;;;;;21.21;51.44;100460.07;107116;1257;25319;-50
2023/11/05 07:29:12;;;;;;;6.30;5.50;;;;;;;21.25;51.22;100454.15;107108;1261;25327;-50
2023/11/05 07:31:41;;;;;;;5.60;5.10;;;;;;;21.30;51.08;100460.52;107114;1254;24644;-50
2023/11/05 07:34:10;;;;;;;5.80;5.30;;;;;;;21.34;50.67;100461.24;107197;1254;25348;-50
2023/11/05 07:36:38;;;;;;;6.00;5.50;;;;;;;21.37;50.61;100463.45;106821;1257;25318;-51
2023/11/05 07:39:07;;;;;;;5.80;5.30;;;;;;;21.41;50.57;100466.02;107074;1254;25346;-50
2023/11/05 07:41:34;;;;;;;6.20;5.70;;;;;;;21.46;50.55;100464.13;107045;1263;22707;-50
2023/11/05 07:44:01;;;;;;;7.10;6.40;;;;;;;21.48;50.35;100463.58;106889;1260;25496;-50
2023/11/05 07:46:28;;;;;;;6.60;5.80;;;;;;;21.40;50.54;100458.31;106980;1257;25356;-49
2023/11/05 07:48:55;;;;;;;6.70;6.00;;;;;;;21.39;50.56;100454.45;107159;1254;26219;-50
2023/11/05 07:51:23;;;;;;;6.90;5.90;;;;;;;21.42;50.68;100451.15;107091;1274;25356;-50
2023/11/05 07:53:50;;;;;;;7.60;5.80;;;;;;;21.46;50.74;100450.30;107112;1256;25350;-51
2023/11/05 07:56:17;;;;;;;13.30;6.90;;;;;;;21.51;50.64;100450.68;107175;1263;25311;-50
2023/11/05 07:58:44;;;;;;;12.40;8.00;;;;;;;21.67;50.36;100451.58;107083;1261;25398;-49
2023/11/05 08:01:14;;;;;;;11.50;7.80;;;;;;;21.86;50.03;100454.48;107139;1253;25271;-50
2023/11/05 08:03:41;;;;;;;10.00;7.10;;;;;;;21.92;49.95;100461.63;107087;1254;25430;-50
2023/11/05 08:06:09;;;;;;;8.70;7.40;;;;;;;22.02;49.92;100470.25;106824;1267;24490;-50
2023/11/05 08:08:36;;;;;;;8.70;6.90;;;;;;;22.12;49.70;100471.63;107109;1256;22528;-50
2023/11/05 08:11:03;;;;;;;7.60;6.30;;;;;;;22.16;49.54;100470.23;106974;1267;25353;-50
2023/11/05 08:13:31;;;;;;;7.80;6.70;;;;;;;22.20;49.29;100468.73;105861;1259;1003427;-50
2023/11/05 08:15:58;;;;;;;7.80;6.40;;;;;;;22.23;49.15;100462.87;107105;1257;25401;-50
2023/11/05 08:18:26;;;;;;;11.40;6.40;;;;;;;22.26;49.02;100463.69;107216;1263;25331;-50
2023/11/05 08:20:53;;;;;;;9.00;6.60;;;;;;;22.30;49.09;100464.44;107035;1263;25412;-50
2023/11/05 08:23:20;;;;;;;15.20;7.00;;;;;;;22.31;49.40;100466.29;106946;1257;25309;-50
2023/11/05 08:25:48;;;;;;;7.80;7.00;;;;;;;22.36;49.52;100468.00;106730;1264;25397;-50
2023/11/05 08:28:16;;;;;;;13.80;7.90;;;;;;;22.42;49.52;100467.77;106923;1257;25356;-51
2023/11/05 08:30:53;;;;;;;8.20;7.30;;;;;;;22.47;49.63;100463.82;107002;1257;25312;-50
2023/11/05 08:33:21;;;;;;;11.70;7.50;;;;;;;22.51;49.88;100456.41;107152;1266;23163;-51
2023/11/05 08:35:51;;;;;;;12.70;8.00;;;;;;;22.56;49.73;100455.39;107600;1256;24266;-51
2023/11/05 08:38:20;;;;;;;10.90;7.70;;;;;;;22.60;49.76;100457.54;107460;1254;22673;-51
2023/11/05 08:40:46;;;;;;;8.90;7.30;;;;;;;22.64;49.67;100457.63;107134;1259;22524;-51
2023/11/05 08:43:15;;;;;;;17.60;8.60;;;;;;;22.68;49.51;100453.26;107105;1256;25331;-50
2023/11/05 08:45:42;;;;;;;9.10;6.80;;;;;;;22.71;49.27;100451.42;107157;1257;25322;-50
2023/11/05 08:48:18;;;;;;;10.80;7.30;;;;;;;22.73;49.12;100444.03;107121;1259;25359;-50
2023/11/05 08:50:45;;;;;;;11.70;7.90;;;;;;;22.74;48.97;100446.27;107117;1257;25364;-51
2023/11/05 08:53:12;;;;;;;14.10;7.90;;;;;;;22.73;48.81;100448.41;107163;1257;25340;-50
2023/11/05 08:55:39;;;;;;;14.60;7.90;;;;;;;22.75;49.00;100447.27;107140;1260;25385;-51
2023/11/05 08:58:06;;;;;;;11.30;7.50;;;;;;;22.77;48.95;100446.21;107157;1263;22734;-51
2023/11/05 09:00:34;;;;;;;10.10;6.90;;;;;;;22.79;49.14;100435.94;106779;1268;25408;-51
2023/11/05 09:03:01;;;;;;;11.30;7.60;;;;;;;22.82;49.12;100429.54;107225;1255;22628;-51
2023/11/05 09:05:32;;;;;;;14.60;7.20;;;;;;;22.84;49.15;100417.90;106642;1259;25340;-51
2023/11/05 09:08:01;;;;;;;8.70;6.40;;;;;;;22.85;49.03;100413.90;106893;1267;22652;-51
2023/11/05 09:10:30;;;;;;;11.70;7.60;;;;;;;22.88;49.25;100410.31;107089;1261;23201;-51
2023/11/05 09:12:59;;;;;;;9.90;6.90;;;;;;;22.91;49.28;100408.63;106950;1257;25359;-50
2023/11/05 09:15:27;;;;;;;12.50;6.10;;;;;;;22.96;49.22;100405.98;106873;1260;22540;-51
2023/11/05 09:17:55;;;;;;;8.90;6.40;;;;;;;23.00;49.19;100405.79;106849;1272;24326;-51
2023/11/05 09:20:22;;;;;;;11.40;5.60;;;;;;;23.01;49.32;100404.68;107320;1261;25343;-51
2023/11/05 09:22:49;;;;;;;7.70;6.90;;;;;;;23.04;49.13;100402.87;106786;1275;23899;-50
2023/11/05 09:25:18;;;;;;;8.10;5.40;;;;;;;23.09;48.87;100400.00;107155;1269;25315;-50
2023/11/05 09:27:45;;;;;;;9.50;5.80;;;;;;;23.15;48.80;100398.98;107129;1274;25353;-50
2023/11/05 09:30:14;;;;;;;14.00;6.10;;;;;;;23.20;48.88;100403.52;107462;1267;25493;-52
2023/11/05 09:32:42;;;;;;;5.80;5.20;;;;;;;23.23;48.81;100396.14;107165;1263;25395;-50
2023/11/05 09:35:14;;;;;;;9.80;6.10;;;;;;;23.26;48.70;100387.06;107030;1273;25305;-51
2023/11/05 09:37:42;;;;;;;8.30;5.80;;;;;;;23.31;48.66;100382.11;107227;1267;25397;-51
2023/11/05 09:40:13;;;;;;;5.70;5.20;;;;;;;23.37;48.37;100374.34;106868;1264;392946;-50
2023/11/05 09:43:09;;;;;;;10.70;6.40;;;;;;;23.34;48.03;100370.39;106851;1259;24021;-51
2023/11/05 09:45:39;;;;;;;11.70;6.40;;;;;;;23.26;48.32;100376.63;107049;1256;22534;-50
2023/11/05 09:48:08;;;;;;;8.50;6.20;;;;;;;23.22;48.59;100380.54;107071;1271;25337;-50
2023/11/05 09:50:36;;;;;;;7.40;6.10;;;;;;;23.17;48.63;100378.96;106829;1274;24214;-50
2023/11/05 09:53:04;;;;;;;7.60;5.60;;;;;;;23.13;48.65;100378.71;107395;1267;22531;-50
2023/11/05 09:55:33;;;;;;;5.50;4.90;;;;;;;23.09;48.66;100382.09;107161;1260;22524;-51
2023/11/05 09:58:01;;;;;;;6.80;4.50;;;;;;;23.04;48.44;100378.77;106888;1266;25356;-50
2023/11/05 10:00:30;;;;;;;5.80;4.90;;;;;;;22.98;48.42;100371.51;106855;1266;22770;-51
2023/11/05 10:03:07;;;;;;;11.40;5.50;;;;;;;22.92;48.73;100368.95;107209;1256;24180;-51
2023/11/05 10:05:37;;;;;;;5.90;5.10;;;;;;;22.85;49.09;100377.96;106965;1260;22552;-51
2023/11/05 10:08:07;;;;;;;8.20;5.50;;;;;;;22.81;49.17;100375.89;107145;1273;25350;-52
2023/11/05 10:10:36;;;;;;;6.60;5.20;;;;;;;22.76;49.27;100375.38;106971;1272;26190;-52
2023/11/05 10:13:07;;;;;;;9.80;5.70;;;;;;;22.71;49.64;100371.73;106695;1273;23959;-51
2023/11/05 10:15:38;;;;;;;7.00;5.20;;;;;;;22.67;49.73;100367.78;107071;1275;25542;-51
2023/11/05 10:18:06;;;;;;;7.80;5.00;;;;;;;22.64;50.11;100367.27;107151;1266;24190;-51
2023/11/05 10:20:44;;;;;;;5.60;4.60;;;;;;;22.61;49.78;100368.34;107150;1274;27312;-52
2023/11/05 10:23:11;;;;;;;12.10;5.80;;;;;;;22.59;49.82;100362.83;106821;1275;22527;-51
2023/11/05 10:25:39;;;;;;;8.20;4.10;;;;;;;22.59;49.85;100368.52;107248;1272;25331;-50
2023/11/05 10:28:06;;;;;;;5.00;4.00;;;;;;;22.58;49.66;100361.39;106804;1273;25330;-51
2023/11/05 10:30:33;;;;;;;7.00;4.00;;;;;;;22.56;49.09;100354.39;106824;1267;22531;-52
2023/11/05 10:33:00;;;;;;;6.20;3.90;;;;;;;22.56;48.99;100356.17;107123;1264;25309;-51
2023/11/05 10:35:30;;;;;;;5.80;3.80;;;;;;;22.55;49.27;100353.77;106255;1257;1003588;-50
2023/11/05 10:37:57;;;;;;;9.60;4.00;;;;;;;22.56;49.02;100351.23;107014;1260;25478;-51
2023/11/05 10:40:25;;;;;;;5.70;3.20;;;;;;;22.58;49.15;100351.47;107330;1257;25245;-51
2023/11/05 10:42:52;;;;;;;5.50;3.70;;;;;;;22.63;49.28;100348.39;107033;1261;23403;-51
2023/11/05 10:45:22;;;;;;;6.30;3.40;;;;;;;22.61;49.63;100339.91;107073;1273;25398;-52
2023/11/05 10:47:50;;;;;;;6.60;3.20;;;;;;;22.74;49.37;100339.60;107100;1264;25356;-51
2023/11/05 10:50:24;;;;;;;5.80;3.10;;;;;;;22.85;49.13;100336.08;107040;1263;25371;-51
2023/11/05 10:52:59;;;;;;;9.90;3.50;;;;;;;22.76;49.57;100337.02;106963;1256;22626;-52
2023/11/05 10:55:36;;;;;;;6.00;3.40;;;;;;;22.79;49.62;100340.85;106906;1265;22582;-51
2023/11/05 10:58:09;;;;;;;4.40;2.60;;;;;;;22.85;49.56;100343.36;107160;1254;22539;-51
2023/11/05 11:00:55;;;;;;;6.20;3.10;;;;;;;22.89;49.10;100341.10;107366;1266;23868;-51
2023/11/05 11:03:25;;;;;;;8.50;3.80;;;;;;;22.70;49.71;100340.13;107123;1265;25339;-50
2023/11/05 11:05:55;;;;;;;6.50;3.70;;;;;;;22.68;49.57;100333.57;106851;1260;25460;-52
2023/11/05 11:08:23;;;;;;;5.00;2.70;;;;;;;22.70;49.70;100334.10;107157;1257;25565;-52
2023/11/05 11:11:14;;;;;;;5.80;2.90;;;;;;;22.72;49.23;100328.68;106970;1273;25477;-52
2023/11/05 11:13:53;;;;;;;6.40;3.30;;;;;;;22.71;49.34;100326.58;107161;1267;23112;-50
2023/11/05 11:16:22;;;;;;;3.90;2.90;;;;;;;22.70;49.65;100320.86;106905;1256;24210;-50
2023/11/05 11:18:50;;;;;;;6.00;3.30;;;;;;;22.71;49.79;100315.77;106993;1256;26512;-49
2023/11/05 11:21:21;;;;;;;4.20;2.90;;;;;;;22.74;49.90;100314.54;107042;1264;25331;-50